sensor_id;sensor_type;location;lat;lon;timestamp;temperature;humidity
69747;DHT22;57018;50.278;19.134;2023-09-30T00:02:06;14.40;99.90
69747;DHT22;57018;50.278;19.134;2023-09-30T00:04:36;14.50;99.90
69747;DHT22;57018;50.278;19.134;2023-09-30T00:07:06;14.50;99.90
69747;DHT22;57018;50.278;19.134;2023-09-30T00:09:36;14.60;99.90
69747;DHT22;57018;50.278;19.134;2023-09-30T00:12:06;14.50;99.90
69747;DHT22;57018;50.278;19.134;2023-09-30T00:14:36;14.60;99.90
69747;DHT22;57018;50.278;19.134;2023-09-30T00:17:06;14.60;99.90
69747;DHT22;57018;50.278;19.134;2023-09-30T00:19:36;14.60;99.90
69747;DHT22;57018;50.278;19.134;2023-09-30T00:22:06;14.60;99.90
69747;DHT22;57018;50.278;19.134;2023-09-30T00:24:36;14.60;99.90
69747;DHT22;57018;50.278;19.134;2023-09-30T00:27:05;14.60;99.90
69747;DHT22;57018;50.278;19.134;2023-09-30T00:29:36;14.60;99.90
69747;DHT22;57018;50.278;19.134;2023-09-30T00:32:06;14.60;99.90
69747;DHT22;57018;50.278;19.134;2023-09-30T00:34:36;14.60;99.90
69747;DHT22;57018;50.278;19.134;2023-09-30T00:37:06;14.60;99.90
69747;DHT22;57018;50.278;19.134;2023-09-30T00:39:36;14.60;99.90
69747;DHT22;57018;50.278;19.134;2023-09-30T00:42:05;14.60;99.90
69747;DHT22;57018;50.278;19.134;2023-09-30T00:44:35;14.50;99.90
69747;DHT22;57018;50.278;19.134;2023-09-30T00:47:06;14.60;99.90
69747;DHT22;57018;50.278;19.134;2023-09-30T00:49:37;14.60;99.90
69747;DHT22;57018;50.278;19.134;2023-09-30T00:52:07;14.70;99.90
69747;DHT22;57018;50.278;19.134;2023-09-30T00:54:38;14.70;99.90
69747;DHT22;57018;50.278;19.134;2023-09-30T00:57:09;14.60;99.90
69747;DHT22;57018;50.278;19.134;2023-09-30T00:59:40;14.70;99.90
69747;DHT22;57018;50.278;19.134;2023-09-30T01:02:10;14.70;99.90
69747;DHT22;57018;50.278;19.134;2023-09-30T01:04:40;14.80;99.90
69747;DHT22;57018;50.278;19.134;2023-09-30T01:07:10;14.80;99.90
69747;DHT22;57018;50.278;19.134;2023-09-30T01:09:40;14.80;99.90
69747;DHT22;57018;50.278;19.134;2023-09-30T01:12:11;14.90;99.90
69747;DHT22;57018;50.278;19.134;2023-09-30T01:14:40;14.90;99.90
69747;DHT22;57018;50.278;19.134;2023-09-30T01:17:11;14.90;99.90
69747;DHT22;57018;50.278;19.134;2023-09-30T01:19:42;14.90;99.90
69747;DHT22;57018;50.278;19.134;2023-09-30T01:22:12;14.90;99.90
69747;DHT22;57018;50.278;19.134;2023-09-30T01:24:42;14.90;99.90
69747;DHT22;57018;50.278;19.134;2023-09-30T01:27:12;14.90;99.90
69747;DHT22;57018;50.278;19.134;2023-09-30T01:29:45;15.00;99.90
69747;DHT22;57018;50.278;19.134;2023-09-30T01:32:16;14.90;99.90
69747;DHT22;57018;50.278;19.134;2023-09-30T01:34:45;14.90;99.90
69747;DHT22;57018;50.278;19.134;2023-09-30T01:37:15;15.00;99.90
69747;DHT22;57018;50.278;19.134;2023-09-30T01:39:45;15.00;99.90
69747;DHT22;57018;50.278;19.134;2023-09-30T01:42:15;15.00;99.90
69747;DHT22;57018;50.278;19.134;2023-09-30T01:44:44;15.00;99.90
69747;DHT22;57018;50.278;19.134;2023-09-30T01:47:14;15.10;99.90
69747;DHT22;57018;50.278;19.134;2023-09-30T01:49:44;15.10;99.90
69747;DHT22;57018;50.278;19.134;2023-09-30T01:52:14;15.10;99.90
69747;DHT22;57018;50.278;19.134;2023-09-30T01:54:43;15.10;99.90
69747;DHT22;57018;50.278;19.134;2023-09-30T01:57:13;15.20;99.90
69747;DHT22;57018;50.278;19.134;2023-09-30T01:59:43;15.20;99.90
69747;DHT22;57018;50.278;19.134;2023-09-30T02:02:13;15.20;99.90
69747;DHT22;57018;50.278;19.134;2023-09-30T02:04:44;15.30;99.90
69747;DHT22;57018;50.278;19.134;2023-09-30T02:07:14;15.20;99.90
69747;DHT22;57018;50.278;19.134;2023-09-30T02:09:43;15.20;99.90
69747;DHT22;57018;50.278;19.134;2023-09-30T02:12:13;15.30;99.90
69747;DHT22;57018;50.278;19.134;2023-09-30T02:14:43;15.30;99.90
69747;DHT22;57018;50.278;19.134;2023-09-30T02:17:14;15.30;99.90
69747;DHT22;57018;50.278;19.134;2023-09-30T02:19:44;15.30;99.90
69747;DHT22;57018;50.278;19.134;2023-09-30T02:22:15;15.30;99.90
69747;DHT22;57018;50.278;19.134;2023-09-30T02:24:45;15.40;99.90
69747;DHT22;57018;50.278;19.134;2023-09-30T02:27:17;15.50;99.90
69747;DHT22;57018;50.278;19.134;2023-09-30T02:29:47;15.40;99.90
69747;DHT22;57018;50.278;19.134;2023-09-30T02:32:16;15.50;99.90
69747;DHT22;57018;50.278;19.134;2023-09-30T02:34:46;15.50;99.90
69747;DHT22;57018;50.278;19.134;2023-09-30T02:37:16;15.50;99.90
69747;DHT22;57018;50.278;19.134;2023-09-30T02:39:46;15.50;99.90
69747;DHT22;57018;50.278;19.134;2023-09-30T02:42:16;15.60;99.90
69747;DHT22;57018;50.278;19.134;2023-09-30T02:44:46;15.50;99.90
69747;DHT22;57018;50.278;19.134;2023-09-30T02:47:16;15.50;99.90
69747;DHT22;57018;50.278;19.134;2023-09-30T02:49:46;15.60;99.90
69747;DHT22;57018;50.278;19.134;2023-09-30T02:52:15;15.60;99.90
69747;DHT22;57018;50.278;19.134;2023-09-30T02:54:45;15.60;99.90
69747;DHT22;57018;50.278;19.134;2023-09-30T02:57:15;15.60;99.90
69747;DHT22;57018;50.278;19.134;2023-09-30T02:59:46;15.60;99.90
69747;DHT22;57018;50.278;19.134;2023-09-30T03:02:16;15.60;99.90
69747;DHT22;57018;50.278;19.134;2023-09-30T03:04:46;15.70;99.90
69747;DHT22;57018;50.278;19.134;2023-09-30T03:07:19;15.70;99.90
69747;DHT22;57018;50.278;19.134;2023-09-30T03:09:49;15.70;99.90
69747;DHT22;57018;50.278;19.134;2023-09-30T03:12:21;15.70;99.90
69747;DHT22;57018;50.278;19.134;2023-09-30T03:14:51;15.80;99.90
69747;DHT22;57018;50.278;19.134;2023-09-30T03:17:21;15.80;99.90
69747;DHT22;57018;50.278;19.134;2023-09-30T03:19:51;15.90;99.90
69747;DHT22;57018;50.278;19.134;2023-09-30T03:22:22;15.90;99.90
69747;DHT22;57018;50.278;19.134;2023-09-30T03:24:52;15.80;99.90
69747;DHT22;57018;50.278;19.134;2023-09-30T03:27:22;15.90;99.90
69747;DHT22;57018;50.278;19.134;2023-09-30T03:29:52;15.90;99.90
69747;DHT22;57018;50.278;19.134;2023-09-30T03:32:22;15.90;99.90
69747;DHT22;57018;50.278;19.134;2023-09-30T03:34:54;15.80;99.90
69747;DHT22;57018;50.278;19.134;2023-09-30T03:37:27;15.90;99.90
69747;DHT22;57018;50.278;19.134;2023-09-30T03:39:57;15.90;99.90
69747;DHT22;57018;50.278;19.134;2023-09-30T03:42:27;15.90;99.90
69747;DHT22;57018;50.278;19.134;2023-09-30T03:44:58;15.90;99.90
69747;DHT22;57018;50.278;19.134;2023-09-30T03:47:29;15.90;99.90
69747;DHT22;57018;50.278;19.134;2023-09-30T03:49:58;15.90;99.90
69747;DHT22;57018;50.278;19.134;2023-09-30T03:52:28;15.90;99.90
69747;DHT22;57018;50.278;19.134;2023-09-30T03:55:02;15.90;99.90
69747;DHT22;57018;50.278;19.134;2023-09-30T03:57:34;15.90;99.90
69747;DHT22;57018;50.278;19.134;2023-09-30T04:00:05;15.80;99.90
69747;DHT22;57018;50.278;19.134;2023-09-30T04:02:35;15.90;99.90
69747;DHT22;57018;50.278;19.134;2023-09-30T04:05:06;16.00;99.90
69747;DHT22;57018;50.278;19.134;2023-09-30T04:07:36;16.00;99.90
69747;DHT22;57018;50.278;19.134;2023-09-30T04:10:07;16.00;99.90
69747;DHT22;57018;50.278;19.134;2023-09-30T04:12:37;16.00;99.90
69747;DHT22;57018;50.278;19.134;2023-09-30T04:15:08;16.00;99.90
69747;DHT22;57018;50.278;19.134;2023-09-30T04:17:40;16.00;99.90
69747;DHT22;57018;50.278;19.134;2023-09-30T04:20:11;16.00;99.90
69747;DHT22;57018;50.278;19.134;2023-09-30T04:22:48;16.00;99.90
69747;DHT22;57018;50.278;19.134;2023-09-30T04:25:18;16.00;99.90
69747;DHT22;57018;50.278;19.134;2023-09-30T04:27:49;16.00;99.90
69747;DHT22;57018;50.278;19.134;2023-09-30T04:30:19;16.00;99.90
69747;DHT22;57018;50.278;19.134;2023-09-30T04:32:50;16.00;99.90
69747;DHT22;57018;50.278;19.134;2023-09-30T04:35:21;16.00;99.90
69747;DHT22;57018;50.278;19.134;2023-09-30T04:37:51;16.10;99.90
69747;DHT22;57018;50.278;19.134;2023-09-30T04:40:21;16.10;99.90
69747;DHT22;57018;50.278;19.134;2023-09-30T04:42:50;16.10;99.90
69747;DHT22;57018;50.278;19.134;2023-09-30T04:45:23;16.00;99.90
69747;DHT22;57018;50.278;19.134;2023-09-30T04:47:52;15.90;99.90
69747;DHT22;57018;50.278;19.134;2023-09-30T04:50:24;16.00;99.90
69747;DHT22;57018;50.278;19.134;2023-09-30T04:52:54;15.90;99.90
69747;DHT22;57018;50.278;19.134;2023-09-30T04:55:26;16.00;99.90
69747;DHT22;57018;50.278;19.134;2023-09-30T04:57:56;16.00;99.90
69747;DHT22;57018;50.278;19.134;2023-09-30T05:00:26;16.10;99.90
69747;DHT22;57018;50.278;19.134;2023-09-30T05:02:59;16.10;99.90
69747;DHT22;57018;50.278;19.134;2023-09-30T05:05:29;16.20;99.90
69747;DHT22;57018;50.278;19.134;2023-09-30T05:07:59;16.20;99.90
69747;DHT22;57018;50.278;19.134;2023-09-30T05:10:29;16.20;99.90
69747;DHT22;57018;50.278;19.134;2023-09-30T05:12:58;16.30;99.90
69747;DHT22;57018;50.278;19.134;2023-09-30T05:15:28;16.30;99.90
69747;DHT22;57018;50.278;19.134;2023-09-30T05:18:01;16.30;99.90
69747;DHT22;57018;50.278;19.134;2023-09-30T05:20:31;16.30;99.90
69747;DHT22;57018;50.278;19.134;2023-09-30T05:23:00;16.40;99.90
69747;DHT22;57018;50.278;19.134;2023-09-30T05:25:31;16.40;99.90
69747;DHT22;57018;50.278;19.134;2023-09-30T05:28:00;16.40;99.90
69747;DHT22;57018;50.278;19.134;2023-09-30T05:30:31;16.50;99.90
69747;DHT22;57018;50.278;19.134;2023-09-30T05:33:01;16.50;99.90
69747;DHT22;57018;50.278;19.134;2023-09-30T05:35:31;16.50;99.90
69747;DHT22;57018;50.278;19.134;2023-09-30T05:38:02;16.50;99.90
69747;DHT22;57018;50.278;19.134;2023-09-30T05:40:34;16.60;99.90
69747;DHT22;57018;50.278;19.134;2023-09-30T05:43:04;16.60;99.90
69747;DHT22;57018;50.278;19.134;2023-09-30T05:45:35;16.70;99.90
69747;DHT22;57018;50.278;19.134;2023-09-30T05:48:05;16.70;99.90
69747;DHT22;57018;50.278;19.134;2023-09-30T05:50:36;16.70;99.90
69747;DHT22;57018;50.278;19.134;2023-09-30T05:53:06;16.80;99.90
69747;DHT22;57018;50.278;19.134;2023-09-30T05:55:38;16.80;99.90
69747;DHT22;57018;50.278;19.134;2023-09-30T05:58:13;16.80;99.90
69747;DHT22;57018;50.278;19.134;2023-09-30T06:00:43;16.90;99.90
69747;DHT22;57018;50.278;19.134;2023-09-30T06:03:13;16.90;99.90
69747;DHT22;57018;50.278;19.134;2023-09-30T06:05:43;16.90;99.90
69747;DHT22;57018;50.278;19.134;2023-09-30T06:08:13;17.00;99.90
69747;DHT22;57018;50.278;19.134;2023-09-30T06:10:44;17.00;99.90
69747;DHT22;57018;50.278;19.134;2023-09-30T06:13:14;17.00;99.90
69747;DHT22;57018;50.278;19.134;2023-09-30T06:15:45;17.10;99.90
69747;DHT22;57018;50.278;19.134;2023-09-30T06:18:15;17.10;99.90
69747;DHT22;57018;50.278;19.134;2023-09-30T06:20:45;17.10;99.90
69747;DHT22;57018;50.278;19.134;2023-09-30T06:23:15;17.00;99.90
69747;DHT22;57018;50.278;19.134;2023-09-30T06:25:45;17.10;99.90
69747;DHT22;57018;50.278;19.134;2023-09-30T06:28:15;17.10;99.90
69747;DHT22;57018;50.278;19.134;2023-09-30T06:30:45;17.20;99.90
69747;DHT22;57018;50.278;19.134;2023-09-30T06:33:18;17.30;99.90
69747;DHT22;57018;50.278;19.134;2023-09-30T06:35:48;17.30;99.90
69747;DHT22;57018;50.278;19.134;2023-09-30T06:38:20;17.50;99.90
69747;DHT22;57018;50.278;19.134;2023-09-30T06:40:50;17.60;99.90
69747;DHT22;57018;50.278;19.134;2023-09-30T06:43:20;17.60;99.90
69747;DHT22;57018;50.278;19.134;2023-09-30T06:45:51;17.70;99.90
69747;DHT22;57018;50.278;19.134;2023-09-30T06:48:21;17.80;99.90
69747;DHT22;57018;50.278;19.134;2023-09-30T06:50:51;17.90;99.90
69747;DHT22;57018;50.278;19.134;2023-09-30T06:53:21;17.90;99.90
69747;DHT22;57018;50.278;19.134;2023-09-30T06:55:52;17.90;99.90
69747;DHT22;57018;50.278;19.134;2023-09-30T06:58:22;18.00;99.90
69747;DHT22;57018;50.278;19.134;2023-09-30T07:00:52;18.00;99.90
69747;DHT22;57018;50.278;19.134;2023-09-30T07:03:23;18.10;99.90
69747;DHT22;57018;50.278;19.134;2023-09-30T07:05:53;18.10;99.90
69747;DHT22;57018;50.278;19.134;2023-09-30T07:08:24;18.10;99.90
69747;DHT22;57018;50.278;19.134;2023-09-30T07:10:54;18.20;99.90
69747;DHT22;57018;50.278;19.134;2023-09-30T07:13:25;18.30;99.90
69747;DHT22;57018;50.278;19.134;2023-09-30T07:15:54;18.30;99.90
69747;DHT22;57018;50.278;19.134;2023-09-30T07:18:24;18.40;99.90
69747;DHT22;57018;50.278;19.134;2023-09-30T07:20:54;18.50;99.90
69747;DHT22;57018;50.278;19.134;2023-09-30T07:23:24;18.50;99.90
69747;DHT22;57018;50.278;19.134;2023-09-30T07:25:54;18.70;99.90
69747;DHT22;57018;50.278;19.134;2023-09-30T07:28:23;18.70;99.90
69747;DHT22;57018;50.278;19.134;2023-09-30T07:30:53;18.80;99.90
69747;DHT22;57018;50.278;19.134;2023-09-30T07:33:23;18.80;99.90
69747;DHT22;57018;50.278;19.134;2023-09-30T07:35:53;18.80;99.90
69747;DHT22;57018;50.278;19.134;2023-09-30T07:38:24;18.90;99.90
69747;DHT22;57018;50.278;19.134;2023-09-30T07:40:54;19.00;99.90
69747;DHT22;57018;50.278;19.134;2023-09-30T07:43:23;19.00;99.90
69747;DHT22;57018;50.278;19.134;2023-09-30T07:45:53;19.00;99.90
69747;DHT22;57018;50.278;19.134;2023-09-30T07:48:23;19.10;99.90
69747;DHT22;57018;50.278;19.134;2023-09-30T07:50:53;19.20;99.90
69747;DHT22;57018;50.278;19.134;2023-09-30T07:53:23;19.20;99.90
69747;DHT22;57018;50.278;19.134;2023-09-30T07:55:53;19.20;99.90
69747;DHT22;57018;50.278;19.134;2023-09-30T07:58:23;19.10;99.90
69747;DHT22;57018;50.278;19.134;2023-09-30T08:00:53;19.10;99.90
69747;DHT22;57018;50.278;19.134;2023-09-30T08:03:23;19.10;99.90
69747;DHT22;57018;50.278;19.134;2023-09-30T08:05:53;19.20;99.90
69747;DHT22;57018;50.278;19.134;2023-09-30T08:08:23;19.10;99.90
69747;DHT22;57018;50.278;19.134;2023-09-30T08:10:53;19.20;99.90
69747;DHT22;57018;50.278;19.134;2023-09-30T08:13:24;19.20;99.90
69747;DHT22;57018;50.278;19.134;2023-09-30T08:15:54;19.20;99.90
69747;DHT22;57018;50.278;19.134;2023-09-30T08:18:24;19.30;99.90
69747;DHT22;57018;50.278;19.134;2023-09-30T08:20:54;19.40;99.90
69747;DHT22;57018;50.278;19.134;2023-09-30T08:23:24;19.50;99.90
69747;DHT22;57018;50.278;19.134;2023-09-30T08:25:57;19.70;99.90
69747;DHT22;57018;50.278;19.134;2023-09-30T08:28:27;19.90;99.90
69747;DHT22;57018;50.278;19.134;2023-09-30T08:31:01;20.20;99.90
69747;DHT22;57018;50.278;19.134;2023-09-30T08:33:31;20.40;99.90
69747;DHT22;57018;50.278;19.134;2023-09-30T08:36:04;20.40;99.90
69747;DHT22;57018;50.278;19.134;2023-09-30T08:38:37;20.50;99.90
69747;DHT22;57018;50.278;19.134;2023-09-30T08:41:08;20.60;99.90
69747;DHT22;57018;50.278;19.134;2023-09-30T08:43:39;20.70;99.90
69747;DHT22;57018;50.278;19.134;2023-09-30T08:46:10;20.60;99.90
69747;DHT22;57018;50.278;19.134;2023-09-30T08:48:40;20.70;99.90
69747;DHT22;57018;50.278;19.134;2023-09-30T08:51:11;20.70;99.90
69747;DHT22;57018;50.278;19.134;2023-09-30T08:53:42;20.60;99.90
69747;DHT22;57018;50.278;19.134;2023-09-30T08:56:12;20.50;99.90
69747;DHT22;57018;50.278;19.134;2023-09-30T08:58:43;20.30;99.90
69747;DHT22;57018;50.278;19.134;2023-09-30T09:01:13;20.20;99.90
69747;DHT22;57018;50.278;19.134;2023-09-30T09:03:44;19.90;99.90
69747;DHT22;57018;50.278;19.134;2023-09-30T09:06:18;19.70;99.90
69747;DHT22;57018;50.278;19.134;2023-09-30T09:08:49;19.60;99.90
69747;DHT22;57018;50.278;19.134;2023-09-30T09:11:20;19.50;99.90
69747;DHT22;57018;50.278;19.134;2023-09-30T09:13:51;19.60;99.90
69747;DHT22;57018;50.278;19.134;2023-09-30T09:16:24;19.60;99.90
69747;DHT22;57018;50.278;19.134;2023-09-30T09:18:54;19.60;99.90
69747;DHT22;57018;50.278;19.134;2023-09-30T09:21:25;19.50;99.90
69747;DHT22;57018;50.278;19.134;2023-09-30T09:23:56;19.50;99.90
69747;DHT22;57018;50.278;19.134;2023-09-30T09:26:27;19.40;99.90
69747;DHT22;57018;50.278;19.134;2023-09-30T09:29:00;19.30;99.90
69747;DHT22;57018;50.278;19.134;2023-09-30T09:31:33;19.30;99.90
69747;DHT22;57018;50.278;19.134;2023-09-30T09:34:04;19.40;99.90
69747;DHT22;57018;50.278;19.134;2023-09-30T09:36:43;19.30;99.90
69747;DHT22;57018;50.278;19.134;2023-09-30T09:39:14;19.30;99.90
69747;DHT22;57018;50.278;19.134;2023-09-30T09:41:52;19.40;99.90
69747;DHT22;57018;50.278;19.134;2023-09-30T09:44:23;19.40;99.90
69747;DHT22;57018;50.278;19.134;2023-09-30T09:46:54;19.30;99.90
69747;DHT22;57018;50.278;19.134;2023-09-30T09:49:26;19.40;99.90
69747;DHT22;57018;50.278;19.134;2023-09-30T09:51:58;19.20;99.90
69747;DHT22;57018;50.278;19.134;2023-09-30T09:54:28;19.20;99.90
69747;DHT22;57018;50.278;19.134;2023-09-30T09:57:01;19.10;99.90
69747;DHT22;57018;50.278;19.134;2023-09-30T09:59:33;19.10;99.90
69747;DHT22;57018;50.278;19.134;2023-09-30T10:02:11;19.00;99.90
69747;DHT22;57018;50.278;19.134;2023-09-30T10:04:43;19.00;99.90
69747;DHT22;57018;50.278;19.134;2023-09-30T10:07:16;19.00;99.90
69747;DHT22;57018;50.278;19.134;2023-09-30T10:09:51;19.00;99.90
69747;DHT22;57018;50.278;19.134;2023-09-30T10:12:22;18.90;99.90
69747;DHT22;57018;50.278;19.134;2023-09-30T10:14:53;19.00;99.90
69747;DHT22;57018;50.278;19.134;2023-09-30T10:17:59;18.90;99.90
69747;DHT22;57018;50.278;19.134;2023-09-30T10:20:30;18.80;99.90
69747;DHT22;57018;50.278;19.134;2023-09-30T10:23:27;18.80;99.90
69747;DHT22;57018;50.278;19.134;2023-09-30T10:29:10;18.50;99.90
69747;DHT22;57018;50.278;19.134;2023-09-30T10:31:50;18.70;99.90
69747;DHT22;57018;50.278;19.134;2023-09-30T10:34:24;18.80;99.90
69747;DHT22;57018;50.278;19.134;2023-09-30T10:36:54;18.80;99.90
69747;DHT22;57018;50.278;19.134;2023-09-30T10:39:59;18.80;99.90
69747;DHT22;57018;50.278;19.134;2023-09-30T10:42:50;18.80;99.90
69747;DHT22;57018;50.278;19.134;2023-09-30T10:45:44;18.90;99.90
69747;DHT22;57018;50.278;19.134;2023-09-30T10:48:36;18.90;99.90
69747;DHT22;57018;50.278;19.134;2023-09-30T10:51:17;18.90;99.90
69747;DHT22;57018;50.278;19.134;2023-09-30T10:53:51;18.90;99.90
69747;DHT22;57018;50.278;19.134;2023-09-30T10:56:21;18.90;99.90
69747;DHT22;57018;50.278;19.134;2023-09-30T10:58:52;19.00;99.90
69747;DHT22;57018;50.278;19.134;2023-09-30T11:01:24;19.10;99.90
69747;DHT22;57018;50.278;19.134;2023-09-30T11:04:02;19.20;99.90
69747;DHT22;57018;50.278;19.134;2023-09-30T11:06:34;19.40;99.90
69747;DHT22;57018;50.278;19.134;2023-09-30T11:09:04;19.60;99.90
69747;DHT22;57018;50.278;19.134;2023-09-30T11:11:39;19.60;99.90
69747;DHT22;57018;50.278;19.134;2023-09-30T11:14:22;19.60;99.90
69747;DHT22;57018;50.278;19.134;2023-09-30T11:16:54;19.70;99.90
69747;DHT22;57018;50.278;19.134;2023-09-30T11:19:24;19.90;99.90
69747;DHT22;57018;50.278;19.134;2023-09-30T11:21:56;20.00;99.90
69747;DHT22;57018;50.278;19.134;2023-09-30T11:24:27;20.10;99.90
69747;DHT22;57018;50.278;19.134;2023-09-30T11:26:57;20.30;99.90
69747;DHT22;57018;50.278;19.134;2023-09-30T11:29:27;20.10;99.90
69747;DHT22;57018;50.278;19.134;2023-09-30T11:31:57;19.90;99.90
69747;DHT22;57018;50.278;19.134;2023-09-30T11:34:35;19.50;99.90
69747;DHT22;57018;50.278;19.134;2023-09-30T11:37:05;19.30;99.90
69747;DHT22;57018;50.278;19.134;2023-09-30T11:39:35;19.10;99.90
69747;DHT22;57018;50.278;19.134;2023-09-30T11:42:15;18.80;99.90
69747;DHT22;57018;50.278;19.134;2023-09-30T11:44:48;18.40;99.90
69747;DHT22;57018;50.278;19.134;2023-09-30T11:47:29;18.20;99.90
69747;DHT22;57018;50.278;19.134;2023-09-30T11:50:01;17.90;99.90
69747;DHT22;57018;50.278;19.134;2023-09-30T11:52:33;17.80;99.90
69747;DHT22;57018;50.278;19.134;2023-09-30T11:55:07;17.60;99.90
69747;DHT22;57018;50.278;19.134;2023-09-30T11:57:37;17.50;99.90
69747;DHT22;57018;50.278;19.134;2023-09-30T12:00:10;17.30;99.90
69747;DHT22;57018;50.278;19.134;2023-09-30T12:02:42;17.30;99.90
69747;DHT22;57018;50.278;19.134;2023-09-30T12:05:12;17.30;99.90
69747;DHT22;57018;50.278;19.134;2023-09-30T12:07:42;17.20;99.90
69747;DHT22;57018;50.278;19.134;2023-09-30T12:10:13;17.10;99.90
69747;DHT22;57018;50.278;19.134;2023-09-30T12:12:43;17.10;99.90
69747;DHT22;57018;50.278;19.134;2023-09-30T12:15:13;16.90;99.90
69747;DHT22;57018;50.278;19.134;2023-09-30T12:17:43;16.90;99.90
69747;DHT22;57018;50.278;19.134;2023-09-30T12:20:13;17.00;99.90
69747;DHT22;57018;50.278;19.134;2023-09-30T12:22:46;16.90;99.90
69747;DHT22;57018;50.278;19.134;2023-09-30T12:25:17;16.90;99.90
69747;DHT22;57018;50.278;19.134;2023-09-30T12:27:50;16.80;99.90
69747;DHT22;57018;50.278;19.134;2023-09-30T12:30:23;17.00;99.90
69747;DHT22;57018;50.278;19.134;2023-09-30T12:32:55;17.10;99.90
69747;DHT22;57018;50.278;19.134;2023-09-30T12:35:25;17.10;99.90
69747;DHT22;57018;50.278;19.134;2023-09-30T12:37:55;17.10;99.90
69747;DHT22;57018;50.278;19.134;2023-09-30T12:40:26;17.20;99.90
69747;DHT22;57018;50.278;19.134;2023-09-30T12:42:56;17.20;99.90
69747;DHT22;57018;50.278;19.134;2023-09-30T12:45:27;17.30;99.90
69747;DHT22;57018;50.278;19.134;2023-09-30T12:47:56;17.30;99.90
69747;DHT22;57018;50.278;19.134;2023-09-30T12:50:26;17.30;99.90
69747;DHT22;57018;50.278;19.134;2023-09-30T12:52:56;17.20;99.90
69747;DHT22;57018;50.278;19.134;2023-09-30T12:55:26;17.20;99.90
69747;DHT22;57018;50.278;19.134;2023-09-30T12:57:56;17.30;99.90
69747;DHT22;57018;50.278;19.134;2023-09-30T13:00:26;17.30;99.90
69747;DHT22;57018;50.278;19.134;2023-09-30T13:02:59;17.40;99.90
69747;DHT22;57018;50.278;19.134;2023-09-30T13:05:29;17.60;99.90
69747;DHT22;57018;50.278;19.134;2023-09-30T13:07:59;17.90;99.90
69747;DHT22;57018;50.278;19.134;2023-09-30T13:10:29;18.10;99.90
69747;DHT22;57018;50.278;19.134;2023-09-30T13:12:59;18.30;99.90
69747;DHT22;57018;50.278;19.134;2023-09-30T13:15:29;18.20;99.90
69747;DHT22;57018;50.278;19.134;2023-09-30T13:17:59;18.30;99.90
69747;DHT22;57018;50.278;19.134;2023-09-30T13:20:31;18.30;99.90
69747;DHT22;57018;50.278;19.134;2023-09-30T13:23:00;18.40;99.90
69747;DHT22;57018;50.278;19.134;2023-09-30T13:25:31;18.50;99.90
69747;DHT22;57018;50.278;19.134;2023-09-30T13:28:01;18.60;99.90
69747;DHT22;57018;50.278;19.134;2023-09-30T13:30:31;18.50;99.90
69747;DHT22;57018;50.278;19.134;2023-09-30T13:33:01;18.50;99.90
69747;DHT22;57018;50.278;19.134;2023-09-30T13:35:31;18.50;99.90
69747;DHT22;57018;50.278;19.134;2023-09-30T13:38:01;18.60;99.90
69747;DHT22;57018;50.278;19.134;2023-09-30T13:40:32;18.80;99.90
69747;DHT22;57018;50.278;19.134;2023-09-30T13:43:01;18.80;99.90
69747;DHT22;57018;50.278;19.134;2023-09-30T13:45:33;19.00;99.90
69747;DHT22;57018;50.278;19.134;2023-09-30T13:48:03;19.20;99.90
69747;DHT22;57018;50.278;19.134;2023-09-30T13:50:34;19.40;99.90
69747;DHT22;57018;50.278;19.134;2023-09-30T13:53:04;19.50;99.90
69747;DHT22;57018;50.278;19.134;2023-09-30T13:55:39;19.60;99.90
69747;DHT22;57018;50.278;19.134;2023-09-30T13:58:08;19.50;99.90
69747;DHT22;57018;50.278;19.134;2023-09-30T14:00:38;19.40;99.90
69747;DHT22;57018;50.278;19.134;2023-09-30T14:03:09;19.20;99.90
69747;DHT22;57018;50.278;19.134;2023-09-30T14:05:39;19.20;99.90
69747;DHT22;57018;50.278;19.134;2023-09-30T14:08:10;19.20;99.90
69747;DHT22;57018;50.278;19.134;2023-09-30T14:10:40;19.10;99.90
69747;DHT22;57018;50.278;19.134;2023-09-30T14:13:11;19.20;99.90
69747;DHT22;57018;50.278;19.134;2023-09-30T14:15:43;19.20;99.90
69747;DHT22;57018;50.278;19.134;2023-09-30T14:18:13;19.30;99.90
69747;DHT22;57018;50.278;19.134;2023-09-30T14:20:43;19.40;99.90
69747;DHT22;57018;50.278;19.134;2023-09-30T14:23:14;19.40;99.90
69747;DHT22;57018;50.278;19.134;2023-09-30T14:25:44;19.30;99.90
69747;DHT22;57018;50.278;19.134;2023-09-30T14:28:14;19.30;99.90
69747;DHT22;57018;50.278;19.134;2023-09-30T14:30:43;19.40;99.90
69747;DHT22;57018;50.278;19.134;2023-09-30T14:33:14;19.30;99.90
69747;DHT22;57018;50.278;19.134;2023-09-30T14:35:44;19.10;99.90
69747;DHT22;57018;50.278;19.134;2023-09-30T14:38:14;19.10;99.90
69747;DHT22;57018;50.278;19.134;2023-09-30T14:40:44;19.00;99.90
69747;DHT22;57018;50.278;19.134;2023-09-30T14:43:14;18.90;99.90
69747;DHT22;57018;50.278;19.134;2023-09-30T14:45:43;18.70;99.90
69747;DHT22;57018;50.278;19.134;2023-09-30T14:48:13;18.60;99.90
69747;DHT22;57018;50.278;19.134;2023-09-30T14:50:50;18.60;99.90
69747;DHT22;57018;50.278;19.134;2023-09-30T14:53:20;18.60;99.90
69747;DHT22;57018;50.278;19.134;2023-09-30T14:55:50;18.70;99.90
69747;DHT22;57018;50.278;19.134;2023-09-30T14:58:20;18.60;99.90
69747;DHT22;57018;50.278;19.134;2023-09-30T15:00:50;18.70;99.90
69747;DHT22;57018;50.278;19.134;2023-09-30T15:03:20;18.50;99.90
69747;DHT22;57018;50.278;19.134;2023-09-30T15:05:58;18.60;99.90
69747;DHT22;57018;50.278;19.134;2023-09-30T15:08:30;18.40;99.90
69747;DHT22;57018;50.278;19.134;2023-09-30T15:11:01;18.40;99.90
69747;DHT22;57018;50.278;19.134;2023-09-30T15:13:31;18.20;99.90
69747;DHT22;57018;50.278;19.134;2023-09-30T15:16:01;18.30;99.90
69747;DHT22;57018;50.278;19.134;2023-09-30T15:18:32;18.20;99.90
69747;DHT22;57018;50.278;19.134;2023-09-30T15:21:02;18.30;99.90
69747;DHT22;57018;50.278;19.134;2023-09-30T15:23:32;18.30;99.90
69747;DHT22;57018;50.278;19.134;2023-09-30T15:26:02;18.30;99.90
69747;DHT22;57018;50.278;19.134;2023-09-30T15:28:32;18.30;99.90
69747;DHT22;57018;50.278;19.134;2023-09-30T15:31:02;18.20;99.90
69747;DHT22;57018;50.278;19.134;2023-09-30T15:33:32;18.10;99.90
69747;DHT22;57018;50.278;19.134;2023-09-30T15:36:10;17.90;99.90
69747;DHT22;57018;50.278;19.134;2023-09-30T15:38:39;17.90;99.90
69747;DHT22;57018;50.278;19.134;2023-09-30T15:41:13;17.70;99.90
69747;DHT22;57018;50.278;19.134;2023-09-30T15:43:43;17.60;99.90